Bento Goncalves, Brazil
Current Conditions -  °F | °C
As of 7:00 PM on Friday 24 Oct 2014 (Local Time) from SBCO Reporting Station
Haze Haze  
Wind Chill: 77°   Ceiling: Unl
Heat Index: 79°   Visibility: 3mi
Dew Point: 68°   Wind: 9mph
Humidity: 74%   Direction: 170°S
Pressure: 29.88"   Gusts: NA
Location:  29.17°S, 51.52°W
Report Text: SBCO 242100Z 17008KT 5000 HZ NSC 25/20 Q1012
Loading
Personal Weather Stations






























Interactive Weather Map
Tropical Storm Tracking
New forecast layout! Learn more

10-Day Weather Forecast

Advertisements
Track Severe Weather on mobile